KBFD/BFD METAR and TAF weather

Enter ICAO airport designator
Station Type Date Time Source
KBFD METAR 2018/10/21 05:35 UTC NOAA

KBFD 210535Z AUTO 35009G18KT 4SM -SN BR BKN005 OVC015 01/00 A2979 RMK AO2 P0000 T00060000


Station Type Date Time Source
KBFD Decoded METAR 2018/10/21 05:35 UTC NOAA

BRADFORD REGIONAL AIRPORT, PA, United States (KBFD) 41-48N 078-38W 647M
Oct 21, 2018 - 01:35 AM EDT / 2018.10.21 0535 UTC
Wind: from the N (350 degrees) at 10 MPH (9 KT) gusting to 21 MPH (18 KT):0
Visibility: 4 mile(s):0
Sky conditions: overcast
Weather: light snow; mist
Precipitation last hour: A trace
Temperature: 33.1 F (0.6 C)
Windchill: 24 F (-4 C):1
Dew Point: 32.0 F (0.0 C)
Relative Humidity: 95%
Pressure (altimeter): 29.79 in. Hg (1008 hPa)
ob: KBFD 210535Z AUTO 35009G18KT 4SM -SN BR BKN005 OVC015 01/00 A2979 RMK AO2 P0000 T00060000
cycle: 5

Station Type Date Time Source
KBFD TAF 2018/10/21 05:03 UTC NOAA

TAF
AMD KBFD 210500Z 2105/2124 32008KT P6SM -SHSN BKN007 OVC015
TEMPO 2105/2108 33015G25KT 1 1/2SM -SN
FM210800 31012G22KT 3SM -SHRASN OVC012
FM211200 33016G25KT 5SM -SHSN OVC015
FM211500 33015G22KT P6SM VCSH OVC025


Example: see airport list